createdAt,value
2018-12-16T00:00:39.600Z,5.03
2018-12-16T00:03:13.917Z,5.83
2018-12-16T00:05:44.834Z,5.30
2018-12-16T00:08:13.820Z,5.20
2018-12-16T00:10:43.468Z,5.13
2018-12-16T00:13:12.296Z,5.53
2018-12-16T00:15:42.177Z,5.30
2018-12-16T00:18:12.208Z,6.67
2018-12-16T00:20:41.409Z,5.83
2018-12-16T00:23:11.171Z,5.80
2018-12-16T00:25:40.964Z,6.17
2018-12-16T00:28:09.814Z,6.17
2018-12-16T00:30:39.068Z,5.50
2018-12-16T00:33:09.456Z,5.10
2018-12-16T00:35:38.331Z,5.80
2018-12-16T00:38:08.415Z,6.40
2018-12-16T00:40:39.393Z,5.57
2018-12-16T00:43:08.272Z,6.67
2018-12-16T00:45:37.139Z,7.10
2018-12-16T00:48:06.015Z,6.23
2018-12-16T00:50:34.905Z,5.60
2018-12-16T00:53:03.725Z,6.17
2018-12-16T00:55:32.552Z,5.80
2018-12-16T00:58:01.382Z,6.08
2018-12-16T01:00:30.218Z,6.20
2018-12-16T01:02:59.063Z,5.97
2018-12-16T01:05:27.951Z,6.40
2018-12-16T01:07:56.778Z,5.87
2018-12-16T01:10:25.643Z,6.30
2018-12-16T01:12:54.496Z,6.10
2018-12-16T01:15:23.298Z,6.70
2018-12-16T01:17:52.108Z,4.70
2018-12-16T01:20:20.901Z,6.43
2018-12-16T01:22:49.889Z,5.53
2018-12-16T01:25:18.716Z,5.37
2018-12-16T01:27:47.569Z,5.90
2018-12-16T01:30:16.372Z,5.80
2018-12-16T01:32:45.169Z,5.47
2018-12-16T01:35:14.016Z,5.43
2018-12-16T01:37:42.839Z,5.80
2018-12-16T01:40:11.684Z,5.43
2018-12-16T01:42:40.530Z,5.37
2018-12-16T01:45:09.390Z,5.60
2018-12-16T01:47:38.216Z,5.63
2018-12-16T01:50:07.020Z,5.20
2018-12-16T01:52:35.858Z,5.70
2018-12-16T01:55:04.875Z,5.33
2018-12-16T01:57:33.747Z,4.60
2018-12-16T02:00:02.704Z,5.30
2018-12-16T02:02:33.544Z,5.73
2018-12-16T02:05:02.567Z,5.53
2018-12-16T02:07:34.383Z,5.57
2018-12-16T02:10:03.652Z,5.23
2018-12-16T02:12:32.717Z,5.23
2018-12-16T02:15:01.532Z,4.93
2018-12-16T02:17:30.668Z,5.73
2018-12-16T02:19:59.520Z,5.80
2018-12-16T02:22:28.335Z,6.13
2018-12-16T02:24:57.193Z,5.80
2018-12-16T02:27:26.118Z,6.10
2018-12-16T02:29:54.921Z,6.23
2018-12-16T02:32:23.717Z,6.95
2018-12-16T02:34:52.524Z,6.10
2018-12-16T02:37:21.348Z,5.80
2018-12-16T02:39:50.139Z,5.63
2018-12-16T02:42:18.997Z,5.60
2018-12-16T02:44:47.853Z,5.70
2018-12-16T02:47:16.705Z,5.50
2018-12-16T02:49:45.585Z,5.93
2018-12-16T02:52:14.438Z,7.17
2018-12-16T02:54:43.268Z,6.60
2018-12-16T02:57:12.088Z,6.27
2018-12-16T02:59:40.873Z,7.17
2018-12-16T03:02:09.709Z,6.43
2018-12-16T03:04:38.588Z,6.23
2018-12-16T03:07:07.453Z,6.07
2018-12-16T03:09:37.740Z,6.17
2018-12-16T03:12:06.539Z,6.03
2018-12-16T03:14:36.317Z,6.40
2018-12-16T03:17:05.168Z,5.70
2018-12-16T03:19:33.992Z,6.20
2018-12-16T03:22:02.862Z,6.47
2018-12-16T03:24:31.660Z,6.53
2018-12-16T03:27:00.960Z,6.43
2018-12-16T03:29:29.760Z,6.50
2018-12-16T03:31:58.579Z,6.37
2018-12-16T03:34:27.413Z,6.60
2018-12-16T03:36:56.272Z,6.20
2018-12-16T03:39:25.060Z,5.80
2018-12-16T03:41:56.111Z,6.37
2018-12-16T03:44:24.900Z,7.00
2018-12-16T03:46:54.320Z,6.23
2018-12-16T03:49:23.755Z,7.13
2018-12-16T03:51:52.537Z,6.23
2018-12-16T03:54:21.368Z,6.60
2018-12-16T03:56:50.248Z,5.87
2018-12-16T03:59:19.724Z,5.50
2018-12-16T04:01:54.501Z,5.67
2018-12-16T04:04:23.540Z,6.03
2018-12-16T04:06:52.348Z,5.83
2018-12-16T04:09:21.301Z,6.30
2018-12-16T04:11:50.283Z,6.17
2018-12-16T04:14:19.124Z,5.73
2018-12-16T04:16:49.992Z,5.77
2018-12-16T04:19:18.827Z,5.73
2018-12-16T04:21:47.631Z,6.07
2018-12-16T04:24:16.651Z,5.87
2018-12-16T04:26:45.476Z,7.07
2018-12-16T04:29:14.772Z,6.70
2018-12-16T04:31:43.603Z,6.27
2018-12-16T04:34:12.408Z,6.37
2018-12-16T04:36:41.200Z,6.47
2018-12-16T04:39:10.041Z,6.53
2018-12-16T04:41:38.824Z,7.07
2018-12-16T04:44:07.666Z,6.93
2018-12-16T04:46:36.508Z,7.30
2018-12-16T04:49:05.310Z,6.67
2018-12-16T04:51:34.104Z,6.10
2018-12-16T04:54:02.916Z,6.70
2018-12-16T04:56:31.762Z,6.23
2018-12-16T04:59:01.724Z,6.00
2018-12-16T05:01:30.520Z,5.70
2018-12-16T05:03:59.358Z,6.53
2018-12-16T05:06:29.150Z,6.10
2018-12-16T05:08:57.968Z,6.30
2018-12-16T05:11:26.763Z,6.40
2018-12-16T05:13:55.571Z,6.50
2018-12-16T05:16:24.359Z,6.57
2018-12-16T05:18:53.164Z,6.40
2018-12-16T05:21:21.972Z,6.97
2018-12-16T05:23:50.805Z,7.27
2018-12-16T05:26:19.800Z,6.77
2018-12-16T05:28:48.573Z,6.97
2018-12-16T05:31:17.416Z,6.20
2018-12-16T05:33:46.207Z,6.43
2018-12-16T05:36:14.995Z,6.00
2018-12-16T05:38:43.798Z,6.73
2018-12-16T05:41:12.623Z,6.30
2018-12-16T05:43:41.560Z,7.03
2018-12-16T05:46:10.432Z,6.53
2018-12-16T05:48:39.227Z,6.13
2018-12-16T05:51:08.056Z,6.47
2018-12-16T05:53:36.895Z,6.70
2018-12-16T05:56:05.852Z,6.50
2018-12-16T05:58:37.684Z,6.07
2018-12-16T06:01:06.632Z,6.30
2018-12-16T06:03:35.522Z,6.00
2018-12-16T06:06:04.331Z,5.83
2018-12-16T06:08:33.120Z,5.73
2018-12-16T06:11:01.980Z,5.70
2018-12-16T06:13:30.868Z,5.53
2018-12-16T06:15:59.671Z,5.10
2018-12-16T06:18:28.473Z,5.73
2018-12-16T06:20:58.532Z,5.83
2018-12-16T06:23:27.347Z,4.33
2018-12-16T06:25:56.152Z,5.50
2018-12-16T06:28:24.992Z,5.50
2018-12-16T06:30:53.997Z,5.43
2018-12-16T06:33:22.787Z,5.77
2018-12-16T06:35:51.624Z,6.33
2018-12-16T06:38:20.451Z,6.00
2018-12-16T06:40:49.249Z,6.50
2018-12-16T06:43:18.096Z,5.70
2018-12-16T06:45:47.079Z,5.87
2018-12-16T06:48:17.462Z,5.80
2018-12-16T06:50:46.660Z,6.53
2018-12-16T06:53:15.451Z,8.10
2018-12-16T06:55:44.907Z,6.97
2018-12-16T06:58:13.717Z,7.23
2018-12-16T07:00:42.533Z,6.57
2018-12-16T07:03:11.315Z,6.33
2018-12-16T07:05:40.164Z,5.77
2018-12-16T07:08:09.056Z,6.57
2018-12-16T07:10:37.843Z,6.13
2018-12-16T07:13:06.663Z,6.57
2018-12-16T07:15:35.435Z,7.00
2018-12-16T07:18:04.265Z,6.80
2018-12-16T07:20:33.095Z,6.37
2018-12-16T07:23:01.890Z,6.23
2018-12-16T07:25:30.673Z,6.23
2018-12-16T07:27:59.521Z,5.73
2018-12-16T07:30:28.339Z,6.20
2018-12-16T07:32:57.226Z,6.40
2018-12-16T07:35:26.511Z,6.07
2018-12-16T07:37:55.542Z,6.97
2018-12-16T07:40:24.356Z,6.30
2018-12-16T07:42:56.162Z,7.20
2018-12-16T07:45:24.998Z,7.37
2018-12-16T07:47:54.284Z,7.00
2018-12-16T07:50:23.593Z,8.85
2018-12-16T07:52:52.403Z,8.17
2018-12-16T07:55:21.286Z,8.43
2018-12-16T07:57:51.102Z,7.77
2018-12-16T08:00:19.932Z,8.63
2018-12-16T08:02:48.720Z,8.30
2018-12-16T08:05:17.597Z,7.47
2018-12-16T08:07:46.385Z,8.63
2018-12-16T08:10:15.204Z,8.00
2018-12-16T08:12:44.025Z,7.87
2018-12-16T08:15:12.952Z,17.47
2018-12-16T08:17:41.940Z,8.80
2018-12-16T08:20:10.984Z,9.00
2018-12-16T08:22:39.775Z,9.50
2018-12-16T08:25:08.682Z,9.37
2018-12-16T08:27:37.548Z,9.17
2018-12-16T08:30:07.688Z,9.07
2018-12-16T08:32:36.820Z,9.37
2018-12-16T08:35:06.161Z,9.50
2018-12-16T08:37:34.981Z,9.33
2018-12-16T08:40:04.722Z,9.67
2018-12-16T08:42:33.671Z,9.67
2018-12-16T08:45:04.667Z,9.97
2018-12-16T08:47:33.641Z,9.57
2018-12-16T08:50:02.456Z,9.00
2018-12-16T08:52:31.728Z,9.43
2018-12-16T08:55:00.523Z,9.37
2018-12-16T08:57:29.537Z,8.90
2018-12-16T08:59:58.692Z,8.80
2018-12-16T09:02:27.804Z,9.57
2018-12-16T09:04:57.205Z,9.40
2018-12-16T09:07:26.452Z,10.63
2018-12-16T09:09:55.266Z,10.07
2018-12-16T09:12:24.123Z,9.30
2018-12-16T09:14:53.076Z,8.73
2018-12-16T09:17:22.267Z,9.80
2018-12-16T09:19:51.389Z,9.47
2018-12-16T09:22:20.568Z,9.90
2018-12-16T09:24:49.457Z,10.47
2018-12-16T09:27:18.284Z,9.13
2018-12-16T09:29:47.303Z,8.73
2018-12-16T09:32:16.949Z,8.33
2018-12-16T09:34:45.905Z,7.20
2018-12-16T09:37:14.743Z,8.83
2018-12-16T09:39:43.589Z,10.43
2018-12-16T09:42:12.431Z,9.27
2018-12-16T09:44:41.704Z,7.77
2018-12-16T09:47:10.614Z,8.53
2018-12-16T09:49:39.560Z,7.97
2018-12-16T09:52:08.367Z,9.67
2018-12-16T09:54:44.003Z,8.30
2018-12-16T09:57:08.109Z,8.67
2018-12-16T09:59:36.998Z,16.00
2018-12-16T10:02:06.072Z,9.00
2018-12-16T10:04:34.924Z,8.67
2018-12-16T10:07:03.797Z,7.53
2018-12-16T10:09:32.657Z,8.47
2018-12-16T10:12:01.487Z,9.40
2018-12-16T10:14:30.308Z,11.70
2018-12-16T10:16:59.095Z,9.63
2018-12-16T10:19:28.716Z,6.73
2018-12-16T10:21:57.543Z,8.73
2018-12-16T10:24:26.647Z,8.57
2018-12-16T10:26:55.471Z,12.87
2018-12-16T10:29:24.280Z,6.97
2018-12-16T10:31:53.609Z,8.53
2018-12-16T10:34:23.099Z,8.10
2018-12-16T10:36:51.984Z,8.33
2018-12-16T10:39:20.808Z,8.23
2018-12-16T10:41:49.604Z,9.07
2018-12-16T10:44:18.975Z,8.07
2018-12-16T10:46:48.000Z,8.93
2018-12-16T10:49:16.908Z,6.87
2018-12-16T10:51:46.257Z,7.17
2018-12-16T10:54:15.375Z,7.60
2018-12-16T10:56:44.508Z,6.93
2018-12-16T10:59:13.511Z,7.33
2018-12-16T11:01:43.736Z,9.50
2018-12-16T11:04:12.790Z,7.53
2018-12-16T11:06:42.119Z,7.57
2018-12-16T11:09:11.672Z,12.23
2018-12-16T11:11:40.740Z,7.93
2018-12-16T11:14:10.704Z,8.53
2018-12-16T11:16:39.995Z,8.10
2018-12-16T11:19:09.632Z,8.63
2018-12-16T11:21:39.539Z,7.30
2018-12-16T11:24:09.692Z,7.13
2018-12-16T11:26:39.727Z,7.77
2018-12-16T11:29:09.308Z,6.33
2018-12-16T11:31:39.747Z,8.90
2018-12-16T11:34:09.659Z,8.90
2018-12-16T11:36:39.849Z,8.10
2018-12-16T11:39:10.173Z,9.67
2018-12-16T11:41:40.124Z,8.03
2018-12-16T11:44:10.791Z,8.47
2018-12-16T11:46:40.582Z,7.37
2018-12-16T11:49:10.603Z,7.27
2018-12-16T11:51:40.223Z,7.43
2018-12-16T11:54:10.065Z,7.93
2018-12-16T11:56:40.076Z,6.80
2018-12-16T11:59:09.570Z,7.47
2018-12-16T12:01:39.428Z,7.07
2018-12-16T12:04:11.258Z,8.20
2018-12-16T12:06:40.323Z,7.87
2018-12-16T12:09:09.388Z,5.80
2018-12-16T12:11:39.272Z,6.50
2018-12-16T12:14:09.667Z,7.93
2018-12-16T12:16:39.222Z,8.20
2018-12-16T12:19:08.894Z,7.73
2018-12-16T12:21:38.770Z,7.17
2018-12-16T12:24:08.930Z,7.97
2018-12-16T12:26:38.471Z,7.93
2018-12-16T12:29:08.339Z,8.60
2018-12-16T12:31:38.039Z,7.80
2018-12-16T12:34:08.643Z,7.80
2018-12-16T12:36:38.171Z,7.93
2018-12-16T12:39:08.002Z,8.20
2018-12-16T12:41:39.955Z,10.10
2018-12-16T12:44:09.747Z,8.50
2018-12-16T12:46:38.724Z,7.00
2018-12-16T12:49:08.323Z,9.13
2018-12-16T12:51:37.363Z,7.47
2018-12-16T12:54:07.157Z,8.37
2018-12-16T12:56:36.068Z,11.33
2018-12-16T12:59:05.272Z,8.83
2018-12-16T13:01:34.399Z,10.03
2018-12-16T13:04:05.033Z,13.60
2018-12-16T13:06:33.927Z,9.87
2018-12-16T13:09:03.268Z,8.70
2018-12-16T13:11:34.195Z,8.07
2018-12-16T13:14:03.091Z,7.23
2018-12-16T13:16:31.916Z,9.80
2018-12-16T13:19:00.813Z,8.03
2018-12-16T13:21:29.666Z,8.00
2018-12-16T13:23:58.467Z,7.50
2018-12-16T13:26:30.211Z,8.60
2018-12-16T13:28:59.820Z,11.70
2018-12-16T13:31:28.785Z,10.50
2018-12-16T13:33:57.874Z,11.47
2018-12-16T13:36:30.458Z,16.70
2018-12-16T13:39:00.177Z,9.63
2018-12-16T13:41:32.873Z,10.23
2018-12-16T13:44:02.008Z,9.47
2018-12-16T13:46:31.394Z,12.30
2018-12-16T13:49:00.227Z,12.40
2018-12-16T13:51:28.751Z,14.97
2018-12-16T13:53:58.048Z,8.80
2018-12-16T13:56:26.772Z,9.27
2018-12-16T13:58:55.516Z,21.80
2018-12-16T14:01:24.418Z,15.07
2018-12-16T14:03:53.791Z,18.80
2018-12-16T14:06:23.660Z,9.60
2018-12-16T14:08:52.944Z,9.20
2018-12-16T14:11:26.120Z,12.23
2018-12-16T14:13:54.644Z,13.53
2018-12-16T14:16:23.207Z,12.00
2018-12-16T14:18:51.887Z,11.37
2018-12-16T14:21:20.403Z,11.53
2018-12-16T14:23:49.187Z,13.23
2018-12-16T14:26:17.820Z,11.93
2018-12-16T14:28:47.187Z,11.83
2018-12-16T14:31:15.804Z,10.37
2018-12-16T14:33:44.330Z,10.77
2018-12-16T14:36:12.853Z,13.17
2018-12-16T14:38:41.765Z,13.17
2018-12-16T14:41:10.673Z,12.47
2018-12-16T14:43:39.491Z,13.37
2018-12-16T14:46:08.582Z,14.90
2018-12-16T14:48:37.069Z,12.97
2018-12-16T14:51:05.547Z,12.73
2018-12-16T14:53:34.139Z,12.27
2018-12-16T14:56:02.627Z,12.70
2018-12-16T14:58:31.157Z,13.17
2018-12-16T15:00:59.808Z,13.47
2018-12-16T15:03:28.377Z,15.23
2018-12-16T15:05:59.362Z,15.97
2018-12-16T15:08:28.014Z,15.10
2018-12-16T15:11:02.118Z,15.37
2018-12-16T15:13:39.150Z,13.53
2018-12-16T15:16:10.130Z,14.33
2018-12-16T15:18:38.926Z,15.60
2018-12-16T15:21:07.734Z,16.27
2018-12-16T15:23:36.363Z,16.33
2018-12-16T15:26:04.879Z,15.03
2018-12-16T15:28:33.381Z,15.50
2018-12-16T15:31:02.080Z,16.20
2018-12-16T15:33:30.731Z,18.10
2018-12-16T15:35:59.248Z,19.17
2018-12-16T15:38:27.861Z,20.83
2018-12-16T15:40:56.631Z,24.47
2018-12-16T15:43:25.100Z,29.67
2018-12-16T15:45:53.583Z,30.40
2018-12-16T15:48:22.231Z,34.83
2018-12-16T15:50:51.470Z,33.63
2018-12-16T15:53:20.464Z,34.97
2018-12-16T15:55:49.457Z,34.10
2018-12-16T15:58:18.198Z,33.63
2018-12-16T16:00:46.882Z,34.67
2018-12-16T16:03:15.877Z,32.90
2018-12-16T16:05:45.192Z,30.50
2018-12-16T16:08:16.565Z,31.23
2018-12-16T16:10:44.747Z,28.97
2018-12-16T16:13:13.220Z,29.97
2018-12-16T16:15:42.013Z,28.80
2018-12-16T16:18:10.800Z,29.40
2018-12-16T16:20:39.893Z,30.90
2018-12-16T16:23:09.301Z,28.07
2018-12-16T16:25:39.108Z,26.80
2018-12-16T16:28:08.968Z,27.17
2018-12-16T16:30:38.015Z,28.97
2018-12-16T16:33:06.995Z,30.03
2018-12-16T16:35:35.954Z,30.27
2018-12-16T16:38:04.954Z,32.40
2018-12-16T16:40:33.491Z,32.20
2018-12-16T16:43:03.239Z,32.63
2018-12-16T16:45:31.943Z,32.80
2018-12-16T16:48:00.458Z,32.27
2018-12-16T16:50:29.288Z,37.87
2018-12-16T16:52:58.336Z,44.73
2018-12-16T16:55:27.439Z,42.83
2018-12-16T16:57:56.335Z,45.13
2018-12-16T17:00:25.188Z,44.43
2018-12-16T17:02:54.427Z,39.97
2018-12-16T17:05:23.213Z,37.10
2018-12-16T17:07:51.841Z,39.07
2018-12-16T17:10:21.055Z,38.00
2018-12-16T17:12:50.799Z,32.20
2018-12-16T17:15:19.428Z,32.93
2018-12-16T17:17:48.126Z,28.27
2018-12-16T17:20:17.368Z,30.37
2018-12-16T17:22:46.109Z,27.07
2018-12-16T17:25:15.353Z,25.70
2018-12-16T17:27:44.143Z,22.10
2018-12-16T17:30:13.381Z,23.73
2018-12-16T17:32:42.254Z,24.80
2018-12-16T17:35:11.226Z,24.33
2018-12-16T17:37:40.319Z,24.67
2018-12-16T17:40:09.108Z,21.47
2018-12-16T17:42:37.762Z,19.70
2018-12-16T17:45:07.063Z,20.40
2018-12-16T17:47:36.597Z,20.07
2018-12-16T17:50:05.853Z,19.20
2018-12-16T17:52:34.891Z,20.30
2018-12-16T17:55:03.888Z,19.77
2018-12-16T17:57:32.611Z,20.13
2018-12-16T18:00:01.871Z,21.67
2018-12-16T18:02:31.376Z,21.30
2018-12-16T18:05:00.219Z,21.30
2018-12-16T18:07:30.131Z,21.47
2018-12-16T18:09:59.071Z,22.23
2018-12-16T18:12:29.169Z,22.10
2018-12-16T18:14:59.717Z,22.60
2018-12-16T18:17:28.347Z,21.67
2018-12-16T18:19:56.974Z,21.73
2018-12-16T18:22:25.771Z,24.60
2018-12-16T18:24:55.173Z,23.17
2018-12-16T18:27:24.487Z,23.97
2018-12-16T18:29:53.245Z,22.30
2018-12-16T18:32:22.469Z,22.97
2018-12-16T18:34:52.687Z,24.17
2018-12-16T18:37:21.375Z,24.70
2018-12-16T18:39:50.588Z,28.77
2018-12-16T18:42:19.456Z,25.70
2018-12-16T18:44:48.370Z,27.17
2018-12-16T18:47:17.178Z,27.47
2018-12-16T18:49:45.765Z,27.80
2018-12-16T18:52:14.505Z,25.63
2018-12-16T18:54:43.166Z,27.07
2018-12-16T18:57:11.819Z,27.33
2018-12-16T18:59:40.513Z,29.55
2018-12-16T19:02:09.358Z,29.87
2018-12-16T19:04:38.237Z,28.40
2018-12-16T19:07:06.871Z,28.77
2018-12-16T19:09:35.551Z,29.23
2018-12-16T19:12:04.815Z,27.73
2018-12-16T19:14:34.561Z,28.80
2018-12-16T19:17:03.417Z,29.03
2018-12-16T19:19:32.145Z,32.07
2018-12-16T19:22:00.879Z,29.33
2018-12-16T19:24:29.877Z,30.57
2018-12-16T19:26:58.686Z,30.60
2018-12-16T19:29:27.766Z,32.03
2018-12-16T19:31:59.605Z,32.77
2018-12-16T19:34:28.248Z,30.90
2018-12-16T19:36:57.203Z,29.47
2018-12-16T19:39:25.930Z,32.50
2018-12-16T19:41:54.642Z,34.17
2018-12-16T19:44:23.300Z,34.13
2018-12-16T19:46:52.563Z,31.80
2018-12-16T19:49:21.759Z,31.20
2018-12-16T19:51:51.668Z,33.60
2018-12-16T19:54:20.793Z,33.23
2018-12-16T19:56:49.514Z,32.90
2018-12-16T19:59:18.757Z,33.60
2018-12-16T20:01:48.746Z,32.17
2018-12-16T20:04:19.366Z,30.50
2018-12-16T20:06:48.148Z,29.70
2018-12-16T20:09:17.199Z,27.27
2018-12-16T20:11:45.947Z,29.77
2018-12-16T20:14:20.704Z,29.70
2018-12-16T20:16:50.323Z,32.53
2018-12-16T20:19:19.059Z,33.47
2018-12-16T20:21:50.896Z,34.17
2018-12-16T20:24:20.176Z,39.90
2018-12-16T20:26:49.368Z,35.53
2018-12-16T20:29:19.375Z,34.73
2018-12-16T20:31:48.596Z,36.23
2018-12-16T20:34:17.621Z,35.37
2018-12-16T20:36:50.543Z,33.10
2018-12-16T20:39:21.387Z,33.77
2018-12-16T20:41:50.368Z,31.57
2018-12-16T20:44:19.649Z,32.33
2018-12-16T20:46:48.640Z,31.20
2018-12-16T20:49:17.640Z,30.10
2018-12-16T20:51:46.653Z,31.13
2018-12-16T20:54:16.552Z,31.17
2018-12-16T20:56:45.572Z,29.70
2018-12-16T20:59:14.542Z,30.87
2018-12-16T21:01:44.364Z,30.80
2018-12-16T21:04:13.443Z,38.75
2018-12-16T21:06:42.461Z,34.03
2018-12-16T21:09:12.232Z,35.13
2018-12-16T21:11:49.016Z,33.20
2018-12-16T21:14:24.217Z,33.40
2018-12-16T21:16:59.670Z,33.50
2018-12-16T21:19:31.246Z,33.97
2018-12-16T21:22:00.482Z,31.73
2018-12-16T21:24:30.345Z,33.23
2018-12-16T21:26:59.690Z,35.20
2018-12-16T21:29:29.992Z,36.47
2018-12-16T21:31:59.488Z,34.23
2018-12-16T21:34:28.578Z,34.93
2018-12-16T21:36:58.919Z,33.93
2018-12-16T21:39:28.660Z,31.60
2018-12-16T21:41:58.170Z,21.20
2018-12-16T21:44:27.173Z,11.50
2018-12-16T21:46:56.498Z,8.00
2018-12-16T21:49:25.820Z,10.30
2018-12-16T21:51:55.072Z,9.03
2018-12-16T21:54:24.145Z,8.13
2018-12-16T21:56:53.654Z,7.10
2018-12-16T21:59:22.760Z,5.30
2018-12-16T22:01:51.936Z,5.03
2018-12-16T22:04:21.451Z,4.90
2018-12-16T22:06:51.547Z,5.40
2018-12-16T22:09:20.794Z,5.70
2018-12-16T22:11:51.951Z,5.53
2018-12-16T22:14:23.712Z,4.73
2018-12-16T22:16:53.241Z,5.30
2018-12-16T22:19:22.954Z,5.17
2018-12-16T22:21:51.931Z,4.90
2018-12-16T22:24:20.836Z,5.20
2018-12-16T22:26:50.085Z,5.40
2018-12-16T22:29:19.780Z,5.43
2018-12-16T22:31:48.836Z,5.67
2018-12-16T22:34:18.020Z,5.90
2018-12-16T22:36:47.003Z,6.80
2018-12-16T22:39:16.175Z,6.83
2018-12-16T22:41:45.559Z,7.87
2018-12-16T22:44:14.663Z,6.17
2018-12-16T22:46:43.632Z,5.73
2018-12-16T22:49:12.600Z,5.17
2018-12-16T22:51:41.592Z,5.57
2018-12-16T22:54:11.195Z,5.10
2018-12-16T22:56:40.203Z,5.27
2018-12-16T22:59:09.232Z,5.20
2018-12-16T23:01:39.611Z,5.80
2018-12-16T23:04:08.959Z,5.77
2018-12-16T23:06:38.567Z,6.43
2018-12-16T23:09:07.969Z,6.47
2018-12-16T23:11:39.419Z,7.03
2018-12-16T23:14:08.272Z,7.40
2018-12-16T23:16:37.610Z,6.93
2018-12-16T23:19:06.762Z,7.73
2018-12-16T23:21:36.512Z,6.97
2018-12-16T23:24:05.675Z,8.03
2018-12-16T23:26:36.038Z,7.83
2018-12-16T23:29:05.124Z,7.27
2018-12-16T23:31:34.599Z,7.80
2018-12-16T23:34:03.691Z,7.47
2018-12-16T23:36:32.700Z,7.77
2018-12-16T23:39:01.779Z,6.80
2018-12-16T23:41:32.971Z,7.63
2018-12-16T23:44:02.672Z,7.60
2018-12-16T23:46:32.694Z,8.00
2018-12-16T23:49:02.342Z,8.10
2018-12-16T23:51:32.108Z,7.93
2018-12-16T23:54:01.596Z,7.00
2018-12-16T23:56:31.016Z,8.27
2018-12-16T23:59:00.316Z,6.87
